createdAt,value
2022-12-13T00:01:47.386Z,-7.29
2022-12-13T00:04:17.346Z,-7.16
2022-12-13T00:06:45.866Z,-7.05
2022-12-13T00:09:15.086Z,-6.92
2022-12-13T00:11:43.499Z,-6.82
2022-12-13T00:14:14.296Z,-6.71
2022-12-13T00:16:46.099Z,-6.53
2022-12-13T00:19:19.461Z,-6.69
2022-12-13T00:21:47.824Z,-6.84
2022-12-13T00:24:16.232Z,-6.90
2022-12-13T00:26:44.547Z,-6.99
2022-12-13T00:29:13.609Z,-6.95
2022-12-13T00:34:32.026Z,-6.79
2022-12-13T00:37:00.513Z,-6.56
2022-12-13T00:39:29.556Z,-6.48
2022-12-13T00:41:58.103Z,-6.77
2022-12-13T00:44:26.452Z,-6.87
2022-12-13T00:46:54.774Z,-7.06
2022-12-13T00:49:23.082Z,-7.19
2022-12-13T00:51:52.725Z,-7.24
2022-12-13T00:54:20.972Z,-7.32
2022-12-13T00:56:51.321Z,-7.40
2022-12-13T00:59:19.664Z,-7.35
2022-12-13T01:01:47.981Z,-6.94
2022-12-13T01:04:16.563Z,-6.73
2022-12-13T01:06:46.294Z,-6.65
2022-12-13T01:09:19.069Z,-6.77
2022-12-13T01:11:47.614Z,-6.75
2022-12-13T01:14:16.573Z,-7.03
2022-12-13T01:16:44.867Z,-7.26
2022-12-13T01:19:13.162Z,-7.41
2022-12-13T01:21:42.082Z,-7.50
2022-12-13T01:24:10.324Z,-7.56
2022-12-13T01:26:40.092Z,-7.53
2022-12-13T01:29:09.112Z,-7.62
2022-12-13T01:31:41.501Z,-7.73
2022-12-13T01:34:11.458Z,-7.85
2022-12-13T01:36:40.803Z,-7.96
2022-12-13T01:39:15.078Z,-7.97
2022-12-13T01:41:46.719Z,-8.01
2022-12-13T01:44:53.906Z,-8.03
2022-12-13T01:47:26.177Z,-8.12
2022-12-13T01:49:56.386Z,-8.15
2022-12-13T01:52:29.933Z,-8.19
2022-12-13T01:55:03.561Z,-8.16
2022-12-13T01:57:34.536Z,-8.16
2022-12-13T02:00:03.684Z,-8.22
2022-12-13T02:02:35.747Z,-8.30
2022-12-13T02:05:08.248Z,-8.32
2022-12-13T02:07:38.556Z,-8.24
2022-12-13T02:10:08.828Z,-8.17
2022-12-13T02:12:39.224Z,-8.18
2022-12-13T02:15:11.836Z,-8.27
2022-12-13T02:18:09.320Z,-8.19
2022-12-13T02:20:59.026Z,-7.99
2022-12-13T02:23:49.691Z,-8.05
2022-12-13T02:26:58.515Z,-8.09
2022-12-13T02:30:14.127Z,-8.14
2022-12-13T02:32:51.787Z,-8.19
2022-12-13T02:35:24.749Z,-8.20
2022-12-13T02:38:01.251Z,-8.16
2022-12-13T02:40:32.681Z,-8.09
2022-12-13T02:43:03.888Z,-8.11
2022-12-13T02:45:36.084Z,-8.31
2022-12-13T02:48:07.091Z,-8.34
2022-12-13T02:50:35.590Z,-8.31
2022-12-13T02:53:03.894Z,-8.30
2022-12-13T02:55:35.934Z,-8.30
2022-12-13T02:58:04.149Z,-8.28
2022-12-13T03:00:41.084Z,-8.26
2022-12-13T03:03:19.270Z,-8.04
2022-12-13T03:06:09.339Z,-8.07
2022-12-13T03:08:46.610Z,-7.85
2022-12-13T03:11:16.643Z,-7.94
2022-12-13T03:13:49.659Z,-8.10
2022-12-13T03:16:27.499Z,-8.24
2022-12-13T03:19:00.991Z,-8.24
2022-12-13T03:21:29.408Z,-8.24
2022-12-13T03:23:57.769Z,-8.27
2022-12-13T03:26:28.014Z,-8.53
2022-12-13T03:28:56.296Z,-8.69
2022-12-13T03:31:24.598Z,-8.68
2022-12-13T03:33:52.919Z,-8.65
2022-12-13T03:36:22.709Z,-8.68
2022-12-13T03:38:52.430Z,-8.53
2022-12-13T03:41:23.000Z,-8.43
2022-12-13T03:43:51.544Z,-8.20
2022-12-13T03:46:19.814Z,-8.28
2022-12-13T03:48:48.140Z,-8.20
2022-12-13T03:51:16.379Z,-8.34
2022-12-13T03:53:45.971Z,-8.56
2022-12-13T03:56:14.242Z,-8.49
2022-12-13T03:58:43.353Z,-8.40
2022-12-13T04:01:13.799Z,-8.20
2022-12-13T04:03:43.532Z,-8.12
2022-12-13T04:06:12.197Z,-7.99
2022-12-13T04:08:41.054Z,-8.17
2022-12-13T04:11:28.158Z,-8.16
2022-12-13T04:13:58.270Z,-8.15
2022-12-13T04:16:26.584Z,-8.31
2022-12-13T04:18:54.874Z,-8.37
2022-12-13T04:21:23.198Z,-8.33
2022-12-13T04:23:51.650Z,-8.34
2022-12-13T04:26:21.424Z,-8.31
2022-12-13T04:28:54.437Z,-8.34
2022-12-13T04:31:23.408Z,-8.31
2022-12-13T04:33:52.323Z,-8.32
2022-12-13T04:36:31.612Z,-8.29
2022-12-13T04:39:01.331Z,-8.43
2022-12-13T04:41:34.061Z,-8.64
2022-12-13T04:44:03.551Z,-8.77
2022-12-13T04:46:31.935Z,-8.71
2022-12-13T04:49:00.243Z,-8.83
2022-12-13T04:51:28.793Z,-8.88
2022-12-13T04:53:57.070Z,-8.97
2022-12-13T04:56:47.018Z,-9.06
2022-12-13T04:59:15.257Z,-9.00
2022-12-13T05:01:43.523Z,-9.07
2022-12-13T05:04:11.782Z,-9.08
2022-12-13T05:06:40.280Z,-9.03
2022-12-13T05:09:11.234Z,-9.04
2022-12-13T05:11:45.892Z,-8.99
2022-12-13T05:14:23.269Z,-8.97
2022-12-13T05:16:52.708Z,-8.97
2022-12-13T05:19:21.082Z,-9.14
2022-12-13T05:21:50.339Z,-9.16
2022-12-13T05:24:19.420Z,-9.14
2022-12-13T05:26:47.622Z,-9.07
2022-12-13T05:29:17.305Z,-9.17
2022-12-13T05:31:45.556Z,-9.20
2022-12-13T05:34:13.802Z,-9.23
2022-12-13T05:36:42.127Z,-9.21
2022-12-13T05:39:28.423Z,-9.04
2022-12-13T05:42:01.387Z,-8.99
2022-12-13T05:44:33.255Z,-9.11
2022-12-13T05:47:02.931Z,-9.23
2022-12-13T05:49:32.581Z,-9.23
2022-12-13T05:52:01.011Z,-9.13
2022-12-13T05:54:29.242Z,-9.25
2022-12-13T05:56:57.554Z,-9.27
2022-12-13T05:59:25.751Z,-9.16
2022-12-13T06:01:55.466Z,-9.17
2022-12-13T06:04:23.783Z,-9.26
2022-12-13T06:06:52.709Z,-9.21
2022-12-13T06:09:21.473Z,-9.16
2022-12-13T06:11:50.032Z,-9.14
2022-12-13T06:14:21.702Z,-9.04
2022-12-13T06:16:52.215Z,-8.96
2022-12-13T06:19:22.571Z,-9.02
2022-12-13T06:21:50.860Z,-8.91
2022-12-13T06:24:21.102Z,-8.85
2022-12-13T06:26:50.202Z,-8.93
2022-12-13T06:29:22.654Z,-8.91
2022-12-13T06:32:02.327Z,-8.93
2022-12-13T06:35:28.436Z,-8.85
2022-12-13T06:38:00.777Z,-8.75
2022-12-13T06:40:29.461Z,-8.61
2022-12-13T06:42:57.685Z,-8.54
2022-12-13T06:45:26.375Z,-8.55
2022-12-13T06:47:55.403Z,-8.59
2022-12-13T06:50:25.073Z,-8.28
2022-12-13T06:52:53.266Z,-8.50
2022-12-13T06:55:23.540Z,-8.45
2022-12-13T06:57:52.855Z,-8.57
2022-12-13T07:00:21.860Z,-8.53
2022-12-13T07:02:53.937Z,-8.52
2022-12-13T07:05:25.064Z,-8.46
2022-12-13T07:07:53.390Z,-8.45
2022-12-13T07:10:23.104Z,-8.33
2022-12-13T07:12:51.629Z,-8.28
2022-12-13T07:15:19.867Z,-8.10
2022-12-13T07:17:50.614Z,-7.96
2022-12-13T07:20:21.053Z,-7.83
2022-12-13T07:22:58.821Z,-7.89
2022-12-13T07:25:29.548Z,-7.77
2022-12-13T07:28:02.251Z,-7.45
2022-12-13T07:30:31.873Z,-7.33
2022-12-13T07:33:00.089Z,-7.17
2022-12-13T07:35:28.286Z,-7.03
2022-12-13T07:37:57.974Z,-6.82
2022-12-13T07:40:26.719Z,-6.57
2022-12-13T07:42:56.782Z,-6.23
2022-12-13T07:45:26.873Z,-5.92
2022-12-13T07:47:55.126Z,-5.97
2022-12-13T07:50:23.911Z,-6.04
2022-12-13T07:52:54.170Z,-5.75
2022-12-13T07:55:33.015Z,-5.31
2022-12-13T07:58:11.834Z,-4.85
2022-12-13T08:00:41.256Z,-4.92
2022-12-13T08:03:25.723Z,-4.52
2022-12-13T08:06:00.436Z,-4.28
2022-12-13T08:08:31.380Z,-4.20
2022-12-13T08:11:05.408Z,-4.35
2022-12-13T08:13:33.969Z,-4.59
2022-12-13T08:16:03.359Z,-4.34
2022-12-13T08:18:31.838Z,-4.04
2022-12-13T08:21:00.935Z,-4.30
2022-12-13T08:23:31.381Z,-4.20
2022-12-13T08:25:59.772Z,-4.04
2022-12-13T08:28:29.624Z,-3.90
2022-12-13T08:31:03.805Z,-3.60
2022-12-13T08:33:32.061Z,-3.37
2022-12-13T08:36:00.326Z,-3.16
2022-12-13T08:38:28.592Z,-3.06
2022-12-13T08:40:59.976Z,-2.79
2022-12-13T08:43:30.072Z,-2.75
2022-12-13T08:46:01.231Z,-2.74
2022-12-13T08:48:29.897Z,-2.63
2022-12-13T08:51:01.986Z,-2.28
2022-12-13T08:53:33.934Z,-1.91
2022-12-13T08:56:12.846Z,-2.01
2022-12-13T08:58:42.483Z,-1.90
2022-12-13T09:01:11.337Z,-1.87
2022-12-13T09:03:39.793Z,-1.39
2022-12-13T09:06:10.586Z,-1.35
2022-12-13T09:08:38.865Z,-1.18
2022-12-13T09:11:11.161Z,-1.02
2022-12-13T09:13:54.090Z,-0.71
2022-12-13T09:16:35.866Z,-0.49
2022-12-13T09:19:06.645Z,-0.66
2022-12-13T09:21:53.918Z,-0.61
2022-12-13T09:24:36.218Z,-0.13
2022-12-13T09:27:09.665Z,0.14
2022-12-13T09:29:40.337Z,0.15
2022-12-13T09:32:08.690Z,0.52
2022-12-13T09:34:37.306Z,0.81
2022-12-13T09:37:07.320Z,0.61
2022-12-13T09:39:35.538Z,0.80
2022-12-13T09:42:10.205Z,0.60
2022-12-13T09:44:49.607Z,0.88
2022-12-13T09:47:34.945Z,1.31
2022-12-13T09:50:08.340Z,1.35
2022-12-13T09:52:45.136Z,1.29
2022-12-13T09:55:20.839Z,0.81
2022-12-13T09:57:50.062Z,1.46
2022-12-13T10:00:22.264Z,1.39
2022-12-13T10:02:52.785Z,0.94
2022-12-13T10:05:34.526Z,0.51
2022-12-13T10:08:09.224Z,0.84
2022-12-13T10:10:38.084Z,1.32
2022-12-13T10:13:12.404Z,2.15
2022-12-13T10:15:44.610Z,2.41
2022-12-13T10:18:26.523Z,2.15
2022-12-13T10:20:55.584Z,2.29
2022-12-13T10:23:38.707Z,2.37
2022-12-13T10:26:14.731Z,2.33
2022-12-13T10:28:52.594Z,2.24
2022-12-13T10:31:22.191Z,2.38
2022-12-13T10:33:55.424Z,2.60
2022-12-13T10:36:35.761Z,2.65
2022-12-13T10:39:04.864Z,2.66
2022-12-13T10:41:36.416Z,2.31
2022-12-13T10:44:25.737Z,2.51
2022-12-13T10:47:17.937Z,2.67
2022-12-13T10:49:59.331Z,2.53
2022-12-13T10:52:30.923Z,2.15
2022-12-13T10:55:04.626Z,2.07
2022-12-13T10:57:53.408Z,2.78
2022-12-13T11:00:43.057Z,2.59
2022-12-13T11:03:16.211Z,2.31
2022-12-13T11:05:46.827Z,2.58
2022-12-13T11:08:17.906Z,2.44
2022-12-13T11:10:46.241Z,3.25
2022-12-13T11:13:37.029Z,2.66
2022-12-13T11:16:07.550Z,2.50
2022-12-13T11:18:38.803Z,3.16
2022-12-13T11:21:08.542Z,3.17
2022-12-13T11:23:39.016Z,3.13
2022-12-13T11:26:10.996Z,2.64
2022-12-13T11:28:55.871Z,2.95
2022-12-13T11:31:28.440Z,3.12
2022-12-13T11:34:05.354Z,3.33
2022-12-13T11:36:42.107Z,3.62
2022-12-13T11:39:21.693Z,3.68
2022-12-13T11:41:55.568Z,3.65
2022-12-13T11:44:29.731Z,3.93
2022-12-13T11:47:00.500Z,3.84
2022-12-13T11:49:45.704Z,4.24
2022-12-13T11:52:17.926Z,4.38
2022-12-13T11:54:51.839Z,4.19
2022-12-13T11:57:31.642Z,3.90
2022-12-13T12:00:12.854Z,3.70
2022-12-13T12:02:45.980Z,3.82
2022-12-13T12:05:28.428Z,4.07
2022-12-13T12:08:32.157Z,4.04
2022-12-13T12:10:50.291Z,4.42
2022-12-13T12:13:22.953Z,3.53
2022-12-13T12:16:07.216Z,3.96
2022-12-13T12:18:35.598Z,3.67
2022-12-13T12:21:23.101Z,3.81
2022-12-13T12:24:02.997Z,3.56
2022-12-13T12:26:36.854Z,3.55
2022-12-13T12:29:35.909Z,3.44
2022-12-13T12:32:08.979Z,2.26
2022-12-13T12:34:42.045Z,1.29
2022-12-13T12:37:16.572Z,1.19
2022-12-13T12:39:46.134Z,1.03
2022-12-13T12:42:56.493Z,0.86
2022-12-13T12:45:56.437Z,0.84
2022-12-13T12:51:22.716Z,0.25
2022-12-13T12:54:08.139Z,0.12
2022-12-13T12:56:39.585Z,0.01
2022-12-13T12:59:16.374Z,-0.16
2022-12-13T13:01:55.236Z,-0.39
2022-12-13T13:04:28.375Z,-0.55
2022-12-13T13:07:01.682Z,-0.60
2022-12-13T13:09:32.702Z,-0.58
2022-12-13T13:12:29.223Z,-0.88
2022-12-13T13:14:52.734Z,-0.94
2022-12-13T13:17:46.323Z,-0.79
2022-12-13T13:20:20.583Z,-0.96
2022-12-13T13:23:03.965Z,-0.94
2022-12-13T13:26:00.366Z,-0.93
2022-12-13T13:28:27.450Z,-1.20
2022-12-13T13:31:03.693Z,-1.13
2022-12-13T13:33:45.814Z,-1.14
2022-12-13T13:36:46.625Z,-1.21
2022-12-13T13:39:17.129Z,-1.35
2022-12-13T13:42:18.081Z,-1.32
2022-12-13T13:45:18.414Z,-1.55
2022-12-13T13:47:58.931Z,-1.59
2022-12-13T13:51:03.362Z,-1.50
2022-12-13T13:54:00.510Z,-1.41
2022-12-13T13:57:22.308Z,-1.39
2022-12-13T14:00:23.369Z,-1.45
2022-12-13T14:03:33.231Z,-1.56
2022-12-13T14:06:39.085Z,-1.49
2022-12-13T14:09:58.048Z,-1.54
2022-12-13T14:13:05.365Z,-1.72
2022-12-13T14:16:07.461Z,-1.70
2022-12-13T14:19:25.958Z,-1.80
2022-12-13T14:22:14.126Z,-1.92
2022-12-13T14:24:52.767Z,-1.98
2022-12-13T14:27:33.899Z,-2.09
2022-12-13T14:30:17.882Z,-2.22
2022-12-13T14:32:51.491Z,-2.34
2022-12-13T14:35:26.974Z,-2.28
2022-12-13T14:38:02.634Z,-2.43
2022-12-13T14:40:33.208Z,-2.53
2022-12-13T14:43:01.874Z,-2.56
2022-12-13T14:45:31.779Z,-2.62
2022-12-13T14:48:01.969Z,-2.68
2022-12-13T14:50:34.484Z,-2.72
2022-12-13T14:53:03.832Z,-2.80
2022-12-13T14:55:33.681Z,-2.82
2022-12-13T14:58:03.876Z,-2.83
2022-12-13T15:00:35.543Z,-2.97
2022-12-13T15:03:05.626Z,-2.93
2022-12-13T15:05:39.976Z,-2.95
2022-12-13T15:08:11.041Z,-3.02
2022-12-13T15:10:41.440Z,-3.08
2022-12-13T15:13:29.027Z,-3.19
2022-12-13T15:16:01.257Z,-3.18
2022-12-13T15:18:38.597Z,-3.19
2022-12-13T15:21:22.158Z,-3.23
2022-12-13T15:23:54.311Z,-3.24
2022-12-13T15:26:29.729Z,-3.25
2022-12-13T15:29:00.912Z,-3.28
2022-12-13T15:31:29.892Z,-3.36
2022-12-13T15:34:28.940Z,-3.43
2022-12-13T15:37:01.589Z,-3.48
2022-12-13T15:39:31.982Z,-3.46
2022-12-13T15:42:01.235Z,-3.44
2022-12-13T15:44:31.221Z,-3.44
2022-12-13T15:47:03.601Z,-3.39
2022-12-13T15:49:35.411Z,-3.45
2022-12-13T15:52:08.276Z,-3.48
2022-12-13T15:54:36.679Z,-3.50
2022-12-13T15:57:14.448Z,-3.55
2022-12-13T15:59:44.255Z,-3.55
2022-12-13T16:02:18.779Z,-3.56
2022-12-13T16:04:47.458Z,-3.52
2022-12-13T16:07:26.324Z,-3.52
2022-12-13T16:09:55.983Z,-3.52
2022-12-13T16:12:26.374Z,-3.59
2022-12-13T16:14:54.676Z,-3.62
2022-12-13T16:17:37.648Z,-3.70
2022-12-13T16:20:14.267Z,-3.69
2022-12-13T16:22:44.548Z,-3.75
2022-12-13T16:25:15.032Z,-3.83
2022-12-13T16:27:43.500Z,-3.82
2022-12-13T16:30:18.460Z,-3.79
2022-12-13T16:35:35.542Z,-3.92
2022-12-13T16:38:09.341Z,-3.95
2022-12-13T16:40:39.146Z,-3.99
2022-12-13T16:43:09.293Z,-4.04
2022-12-13T16:45:42.556Z,-4.04
2022-12-13T16:48:11.947Z,-4.07
2022-12-13T16:50:43.274Z,-4.12
2022-12-13T16:53:17.282Z,-4.16
2022-12-13T16:55:58.135Z,-4.23
2022-12-13T16:58:27.452Z,-4.25
2022-12-13T17:00:59.370Z,-4.25
2022-12-13T17:03:28.945Z,-4.29
2022-12-13T17:05:59.051Z,-4.32
2022-12-13T17:08:31.240Z,-4.31
2022-12-13T17:11:00.242Z,-4.33
2022-12-13T17:13:33.304Z,-4.35
2022-12-13T17:16:03.170Z,-4.35
2022-12-13T17:18:33.400Z,-4.33
2022-12-13T17:21:09.226Z,-4.33
2022-12-13T17:23:40.439Z,-4.39
2022-12-13T17:26:13.131Z,-4.47
2022-12-13T17:28:46.755Z,-4.40
2022-12-13T17:31:16.605Z,-4.41
2022-12-13T17:33:46.364Z,-4.36
2022-12-13T17:36:17.539Z,-4.20
2022-12-13T17:38:48.951Z,-4.24
2022-12-13T17:41:18.332Z,-4.27
2022-12-13T17:43:47.886Z,-4.29
2022-12-13T17:46:18.421Z,-4.43
2022-12-13T17:48:47.725Z,-4.55
2022-12-13T17:51:17.009Z,-4.62
2022-12-13T17:53:48.824Z,-4.75
2022-12-13T17:56:19.827Z,-4.76
2022-12-13T17:58:48.921Z,-4.83
2022-12-13T18:01:19.422Z,-4.87
2022-12-13T18:03:50.040Z,-4.90
2022-12-13T18:06:19.903Z,-4.97
2022-12-13T18:08:51.815Z,-4.98
2022-12-13T18:11:37.096Z,-5.02
2022-12-13T18:14:07.697Z,-5.00
2022-12-13T18:16:40.726Z,-5.03
2022-12-13T18:19:12.825Z,-5.14
2022-12-13T18:21:43.717Z,-5.05
2022-12-13T18:24:15.481Z,-5.11
2022-12-13T18:26:46.001Z,-5.13
2022-12-13T18:29:17.022Z,-5.08
2022-12-13T18:31:46.271Z,-5.00
2022-12-13T18:34:16.016Z,-4.99
2022-12-13T18:36:45.088Z,-4.97
2022-12-13T18:39:19.283Z,-5.06
2022-12-13T18:41:48.924Z,-4.84
2022-12-13T18:44:23.475Z,-4.98
2022-12-13T18:46:53.603Z,-5.05
2022-12-13T18:49:25.880Z,-5.08
2022-12-13T18:51:56.334Z,-5.11
2022-12-13T18:54:27.283Z,-5.09
2022-12-13T18:56:57.041Z,-5.01
2022-12-13T18:59:30.656Z,-4.94
2022-12-13T19:02:07.430Z,-4.92
2022-12-13T19:04:38.263Z,-4.96
2022-12-13T19:07:12.082Z,-4.93
2022-12-13T19:09:54.909Z,-4.85
2022-12-13T19:12:26.611Z,-4.84
2022-12-13T19:14:57.237Z,-4.81
2022-12-13T19:17:28.338Z,-4.82
2022-12-13T19:20:02.676Z,-4.83
2022-12-13T19:22:34.368Z,-4.78
2022-12-13T19:25:07.431Z,-4.78
2022-12-13T19:27:39.629Z,-4.72
2022-12-13T19:30:13.911Z,-4.74
2022-12-13T19:32:44.245Z,-4.63
2022-12-13T19:35:19.244Z,-4.47
2022-12-13T19:37:49.303Z,-4.51
2022-12-13T19:40:30.727Z,-4.50
2022-12-13T19:43:02.723Z,-4.58
2022-12-13T19:45:41.421Z,-4.61
2022-12-13T19:48:12.004Z,-4.43
2022-12-13T19:50:44.956Z,-4.33
2022-12-13T19:53:15.523Z,-4.37
2022-12-13T19:55:49.515Z,-4.48
2022-12-13T19:58:20.086Z,-4.35
2022-12-13T20:00:55.132Z,-4.08
2022-12-13T20:03:27.499Z,-4.17
2022-12-13T20:05:59.904Z,-4.43
2022-12-13T20:08:33.645Z,-4.54
2022-12-13T20:11:09.215Z,-4.27
2022-12-13T20:13:39.662Z,-4.10
2022-12-13T20:16:12.621Z,-4.34
2022-12-13T20:18:44.490Z,-4.32
2022-12-13T20:21:18.178Z,-4.27
2022-12-13T20:26:41.026Z,-4.18
2022-12-13T20:27:23.392Z,-4.39
2022-12-13T20:29:14.226Z,-4.26
2022-12-13T20:31:48.467Z,-4.41
2022-12-13T20:34:21.628Z,-4.34
2022-12-13T20:37:00.198Z,-4.13
2022-12-13T20:39:29.736Z,-4.20
2022-12-13T20:42:01.838Z,-4.23
2022-12-13T20:44:32.891Z,-4.21
2022-12-13T20:47:03.481Z,-4.16
2022-12-13T20:49:33.872Z,-4.18
2022-12-13T20:52:06.719Z,-4.17
2022-12-13T20:54:37.026Z,-4.10
2022-12-13T20:57:09.461Z,-4.04
2022-12-13T20:59:41.680Z,-3.95
2022-12-13T21:02:13.184Z,-3.66
2022-12-13T21:04:43.691Z,-3.64
2022-12-13T21:07:12.483Z,-3.60
2022-12-13T21:09:43.141Z,-3.18
2022-12-13T21:12:13.500Z,-3.42
2022-12-13T21:14:42.350Z,-3.35
2022-12-13T21:17:12.157Z,-3.59
2022-12-13T21:19:41.155Z,-3.68
2022-12-13T21:22:09.452Z,-3.83
2022-12-13T21:24:38.091Z,-3.81
2022-12-13T21:27:07.872Z,-3.79
2022-12-13T21:29:38.066Z,-3.68
2022-12-13T21:32:07.028Z,-3.60
2022-12-13T21:34:35.789Z,-3.34
2022-12-13T21:37:05.275Z,-3.41
2022-12-13T21:39:33.618Z,-3.02
2022-12-13T21:42:05.617Z,-3.09
2022-12-13T21:44:34.033Z,-3.18
2022-12-13T21:47:12.629Z,-3.40
2022-12-13T21:49:41.578Z,-3.44
2022-12-13T21:52:09.911Z,-3.45
2022-12-13T21:54:38.404Z,-3.49
2022-12-13T21:57:25.437Z,-3.56
2022-12-13T21:59:53.743Z,-3.35
2022-12-13T22:02:24.814Z,-3.03
2022-12-13T22:04:54.532Z,-2.90
2022-12-13T22:07:24.405Z,-3.10
2022-12-13T22:09:53.669Z,-3.37
2022-12-13T22:12:24.042Z,-3.22
2022-12-13T22:14:52.689Z,-3.30
2022-12-13T22:17:26.971Z,-3.18
2022-12-13T22:19:58.324Z,-3.09
2022-12-13T22:22:26.707Z,-3.08
2022-12-13T22:24:54.980Z,-3.38
2022-12-13T22:27:25.687Z,-3.29
2022-12-13T22:29:54.602Z,-3.52
2022-12-13T22:32:23.075Z,-3.42
2022-12-13T22:34:51.600Z,-3.75
2022-12-13T22:37:21.919Z,-3.58
2022-12-13T22:39:50.278Z,-3.64
2022-12-13T22:42:19.585Z,-3.44
2022-12-13T22:44:47.840Z,-3.39
2022-12-13T22:47:16.277Z,-3.53
2022-12-13T22:49:44.492Z,-3.40
2022-12-13T22:52:17.594Z,-3.22
2022-12-13T22:54:47.469Z,-3.38
2022-12-13T22:57:15.912Z,-3.48
2022-12-13T22:59:44.827Z,-3.35
2022-12-13T23:02:13.248Z,-3.45
2022-12-13T23:04:41.619Z,-3.35
2022-12-13T23:07:10.202Z,-3.53
2022-12-13T23:09:38.458Z,-3.80
2022-12-13T23:12:25.780Z,-3.63
2022-12-13T23:14:54.025Z,-3.79
2022-12-13T23:17:22.989Z,-3.39
2022-12-13T23:19:53.191Z,-3.86
2022-12-13T23:22:22.991Z,-3.71
2022-12-13T23:24:51.580Z,-3.81
2022-12-13T23:27:22.958Z,-3.84
2022-12-13T23:29:51.976Z,-3.71
2022-12-13T23:32:20.576Z,-3.66
2022-12-13T23:34:48.837Z,-3.86
2022-12-13T23:37:17.866Z,-3.93
2022-12-13T23:39:46.106Z,-3.78
2022-12-13T23:42:14.363Z,-3.79
2022-12-13T23:44:44.613Z,-3.27
2022-12-13T23:47:12.855Z,-3.24
2022-12-13T23:49:41.067Z,-3.46
2022-12-13T23:52:09.347Z,-3.83
2022-12-13T23:54:37.578Z,-3.34
2022-12-13T23:57:06.279Z,-3.17
2022-12-13T23:59:34.477Z,-3.04
